sensor_id;sensor_type;location;lat;lon;timestamp;pressure;altitude;pressure_sealevel;temperature;humidity
47636;BME280;33364;50.766;15.338;2022-09-03T00:02:19;95116.09;;;9.40;78.10
47636;BME280;33364;50.766;15.338;2022-09-03T00:05:00;95119.84;;;9.36;78.88
47636;BME280;33364;50.766;15.338;2022-09-03T00:07:36;95120.53;;;9.38;78.74
47636;BME280;33364;50.766;15.338;2022-09-03T00:10:21;95113.13;;;9.33;78.82
47636;BME280;33364;50.766;15.338;2022-09-03T00:12:51;95112.13;;;9.23;79.45
47636;BME280;33364;50.766;15.338;2022-09-03T00:15:22;95109.22;;;9.27;79.35
47636;BME280;33364;50.766;15.338;2022-09-03T00:18:13;95106.88;;;9.24;78.32
47636;BME280;33364;50.766;15.338;2022-09-03T00:20:44;95105.94;;;9.25;79.79
47636;BME280;33364;50.766;15.338;2022-09-03T00:23:19;95104.66;;;9.31;80.65
47636;BME280;33364;50.766;15.338;2022-09-03T00:28:58;95112.47;;;9.18;79.80
47636;BME280;33364;50.766;15.338;2022-09-03T00:31:40;95109.06;;;9.18;79.22
47636;BME280;33364;50.766;15.338;2022-09-03T00:34:34;95111.31;;;9.22;80.86
47636;BME280;33364;50.766;15.338;2022-09-03T00:37:03;95111.47;;;9.32;79.43
47636;BME280;33364;50.766;15.338;2022-09-03T00:39:29;95110.03;;;9.28;80.61
47636;BME280;33364;50.766;15.338;2022-09-03T00:45:29;95103.59;;;9.33;79.92
47636;BME280;33364;50.766;15.338;2022-09-03T00:56:33;95107.88;;;12.91;76.74
47636;BME280;33364;50.766;15.338;2022-09-03T00:59:10;95113.38;;;12.27;71.05
47636;BME280;33364;50.766;15.338;2022-09-03T01:10:00;95104.59;;;10.01;76.99
47636;BME280;33364;50.766;15.338;2022-09-03T01:12:54;95094.59;;;9.74;77.57
47636;BME280;33364;50.766;15.338;2022-09-03T01:18:26;95096.63;;;9.47;78.97
47636;BME280;33364;50.766;15.338;2022-09-03T01:29:33;95087.56;;;13.35;94.22
47636;BME280;33364;50.766;15.338;2022-09-03T01:32:20;95091.50;;;13.97;86.87
47636;BME280;33364;50.766;15.338;2022-09-03T01:34:58;95092.78;;;14.20;83.80
47636;BME280;33364;50.766;15.338;2022-09-03T01:55:57;95089.44;;;11.51;68.17
47636;BME280;33364;50.766;15.338;2022-09-03T01:58:41;95075.94;;;11.04;70.58
47636;BME280;33364;50.766;15.338;2022-09-03T02:01:29;95085.22;;;10.63;71.47
47636;BME280;33364;50.766;15.338;2022-09-03T02:03:56;95092.66;;;10.34;74.52
47636;BME280;33364;50.766;15.338;2022-09-03T02:06:28;95093.78;;;10.19;74.41
47636;BME280;33364;50.766;15.338;2022-09-03T02:08:56;95084.38;;;9.84;74.09
47636;BME280;33364;50.766;15.338;2022-09-03T02:11:22;95087.19;;;9.70;75.30
47636;BME280;33364;50.766;15.338;2022-09-03T02:13:53;95086.31;;;9.58;76.29
47636;BME280;33364;50.766;15.338;2022-09-03T02:16:26;95093.16;;;9.59;75.27
47636;BME280;33364;50.766;15.338;2022-09-03T02:18:55;95091.72;;;9.55;75.51
47636;BME280;33364;50.766;15.338;2022-09-03T02:21:23;95089.69;;;9.47;77.58
47636;BME280;33364;50.766;15.338;2022-09-03T02:23:50;95084.63;;;9.34;77.96
47636;BME280;33364;50.766;15.338;2022-09-03T02:26:22;95091.75;;;9.31;77.74
47636;BME280;33364;50.766;15.338;2022-09-03T02:28:49;95087.03;;;9.25;76.40
47636;BME280;33364;50.766;15.338;2022-09-03T02:31:15;95078.91;;;9.18;78.02
47636;BME280;33364;50.766;15.338;2022-09-03T02:33:44;95083.41;;;9.03;77.04
47636;BME280;33364;50.766;15.338;2022-09-03T02:36:13;95076.56;;;8.91;80.23
47636;BME280;33364;50.766;15.338;2022-09-03T02:38:43;95084.91;;;8.95;80.02
47636;BME280;33364;50.766;15.338;2022-09-03T02:41:10;95073.09;;;8.79;79.21
47636;BME280;33364;50.766;15.338;2022-09-03T02:46:32;95070.63;;;8.78;79.55
47636;BME280;33364;50.766;15.338;2022-09-03T02:48:59;95068.28;;;8.75;80.17
47636;BME280;33364;50.766;15.338;2022-09-03T02:51:24;95058.97;;;8.72;81.31
47636;BME280;33364;50.766;15.338;2022-09-03T02:53:50;95066.13;;;8.69;80.83
47636;BME280;33364;50.766;15.338;2022-09-03T02:56:15;95059.63;;;8.63;80.24
47636;BME280;33364;50.766;15.338;2022-09-03T02:58:41;95063.63;;;8.67;79.67
47636;BME280;33364;50.766;15.338;2022-09-03T03:01:07;95070.38;;;8.57;79.06
47636;BME280;33364;50.766;15.338;2022-09-03T03:03:32;95072.13;;;8.56;80.57
47636;BME280;33364;50.766;15.338;2022-09-03T03:06:00;95074.59;;;8.58;81.31
47636;BME280;33364;50.766;15.338;2022-09-03T03:08:27;95073.69;;;8.59;80.19
47636;BME280;33364;50.766;15.338;2022-09-03T03:10:55;95079.75;;;8.58;80.14
47636;BME280;33364;50.766;15.338;2022-09-03T03:13:26;95076.47;;;8.56;82.25
47636;BME280;33364;50.766;15.338;2022-09-03T03:16:03;95066.59;;;8.50;80.74
47636;BME280;33364;50.766;15.338;2022-09-03T03:18:32;95068.69;;;8.45;81.96
47636;BME280;33364;50.766;15.338;2022-09-03T03:21:18;95071.56;;;8.40;81.43
47636;BME280;33364;50.766;15.338;2022-09-03T03:23:44;95064.84;;;8.38;81.32
47636;BME280;33364;50.766;15.338;2022-09-03T03:26:12;95069.50;;;8.45;81.36
47636;BME280;33364;50.766;15.338;2022-09-03T03:28:39;95072.06;;;8.45;81.92
47636;BME280;33364;50.766;15.338;2022-09-03T03:31:20;95063.28;;;8.48;81.00
47636;BME280;33364;50.766;15.338;2022-09-03T03:33:54;95066.38;;;8.53;81.79
47636;BME280;33364;50.766;15.338;2022-09-03T03:36:21;95071.31;;;8.56;79.75
47636;BME280;33364;50.766;15.338;2022-09-03T03:38:47;95063.72;;;8.42;80.45
47636;BME280;33364;50.766;15.338;2022-09-03T03:41:17;95061.75;;;8.45;82.06
47636;BME280;33364;50.766;15.338;2022-09-03T03:43:44;95061.53;;;8.36;81.38
47636;BME280;33364;50.766;15.338;2022-09-03T03:46:10;95061.88;;;8.31;80.85
47636;BME280;33364;50.766;15.338;2022-09-03T03:48:37;95066.31;;;8.29;80.71
47636;BME280;33364;50.766;15.338;2022-09-03T03:51:05;95060.94;;;8.32;81.53
47636;BME280;33364;50.766;15.338;2022-09-03T03:53:33;95067.56;;;8.36;81.53
47636;BME280;33364;50.766;15.338;2022-09-03T03:56:01;95072.50;;;8.26;80.99
47636;BME280;33364;50.766;15.338;2022-09-03T03:58:29;95073.13;;;8.30;81.93
47636;BME280;33364;50.766;15.338;2022-09-03T04:01:07;95083.75;;;8.25;80.71
47636;BME280;33364;50.766;15.338;2022-09-03T04:03:34;95083.94;;;8.22;81.62
47636;BME280;33364;50.766;15.338;2022-09-03T04:06:00;95077.44;;;8.29;80.82
47636;BME280;33364;50.766;15.338;2022-09-03T04:08:27;95076.94;;;8.24;79.59
47636;BME280;33364;50.766;15.338;2022-09-03T04:10:53;95071.78;;;8.24;82.09
47636;BME280;33364;50.766;15.338;2022-09-03T04:13:23;95069.41;;;8.21;81.85
47636;BME280;33364;50.766;15.338;2022-09-03T04:15:48;95081.47;;;8.21;79.86
47636;BME280;33364;50.766;15.338;2022-09-03T04:18:14;95075.31;;;8.23;82.02
47636;BME280;33364;50.766;15.338;2022-09-03T04:20:39;95074.16;;;8.15;80.90
47636;BME280;33364;50.766;15.338;2022-09-03T04:23:06;95063.53;;;8.19;82.84
47636;BME280;33364;50.766;15.338;2022-09-03T04:25:31;95071.38;;;8.18;80.86
47636;BME280;33364;50.766;15.338;2022-09-03T04:27:57;95062.59;;;8.20;81.76
47636;BME280;33364;50.766;15.338;2022-09-03T04:30:23;95055.50;;;8.24;82.00
47636;BME280;33364;50.766;15.338;2022-09-03T04:32:49;95057.06;;;8.14;81.98
47636;BME280;33364;50.766;15.338;2022-09-03T04:35:19;95059.31;;;8.18;81.76
47636;BME280;33364;50.766;15.338;2022-09-03T04:37:47;95071.47;;;8.16;82.14
47636;BME280;33364;50.766;15.338;2022-09-03T04:40:13;95064.56;;;8.17;82.16
47636;BME280;33364;50.766;15.338;2022-09-03T04:42:39;95065.09;;;8.09;81.47
47636;BME280;33364;50.766;15.338;2022-09-03T04:45:05;95068.19;;;8.14;81.61
47636;BME280;33364;50.766;15.338;2022-09-03T04:47:31;95057.63;;;8.30;81.76
47636;BME280;33364;50.766;15.338;2022-09-03T04:49:57;95059.16;;;8.32;79.74
47636;BME280;33364;50.766;15.338;2022-09-03T04:52:22;95055.59;;;8.22;80.86
47636;BME280;33364;50.766;15.338;2022-09-03T04:54:49;95055.50;;;8.24;83.18
47636;BME280;33364;50.766;15.338;2022-09-03T04:57:14;95062.91;;;8.28;82.37
47636;BME280;33364;50.766;15.338;2022-09-03T04:59:40;95059.91;;;8.35;83.26
47636;BME280;33364;50.766;15.338;2022-09-03T05:02:07;95061.13;;;8.42;83.84
47636;BME280;33364;50.766;15.338;2022-09-03T05:04:34;95064.34;;;8.45;81.49
47636;BME280;33364;50.766;15.338;2022-09-03T05:06:59;95065.97;;;8.46;82.54
47636;BME280;33364;50.766;15.338;2022-09-03T05:09:25;95059.47;;;8.53;81.88
47636;BME280;33364;50.766;15.338;2022-09-03T05:11:51;95071.88;;;8.48;79.49
47636;BME280;33364;50.766;15.338;2022-09-03T05:14:16;95069.94;;;8.39;80.31
47636;BME280;33364;50.766;15.338;2022-09-03T05:16:42;95060.19;;;8.43;82.65
47636;BME280;33364;50.766;15.338;2022-09-03T05:19:07;95062.97;;;8.52;82.45
47636;BME280;33364;50.766;15.338;2022-09-03T05:21:34;95059.75;;;8.62;83.04
47636;BME280;33364;50.766;15.338;2022-09-03T05:24:03;95052.50;;;8.67;82.86
47636;BME280;33364;50.766;15.338;2022-09-03T05:26:32;95056.50;;;8.71;81.82
47636;BME280;33364;50.766;15.338;2022-09-03T05:29:02;95060.25;;;8.67;82.55
47636;BME280;33364;50.766;15.338;2022-09-03T05:31:33;95056.63;;;8.69;82.47
47636;BME280;33364;50.766;15.338;2022-09-03T05:34:02;95048.56;;;8.74;81.98
47636;BME280;33364;50.766;15.338;2022-09-03T05:36:30;95037.50;;;8.72;82.19
47636;BME280;33364;50.766;15.338;2022-09-03T05:38:57;95047.72;;;8.73;83.52
47636;BME280;33364;50.766;15.338;2022-09-03T05:41:23;95042.03;;;8.81;81.99
47636;BME280;33364;50.766;15.338;2022-09-03T05:43:51;95040.75;;;8.87;83.12
47636;BME280;33364;50.766;15.338;2022-09-03T05:46:22;95045.25;;;8.96;83.74
47636;BME280;33364;50.766;15.338;2022-09-03T05:48:51;95043.50;;;8.96;83.27
47636;BME280;33364;50.766;15.338;2022-09-03T05:51:18;95041.78;;;9.08;83.97
47636;BME280;33364;50.766;15.338;2022-09-03T05:53:45;95033.97;;;9.21;82.56
47636;BME280;33364;50.766;15.338;2022-09-03T05:56:15;95039.88;;;9.34;83.78
47636;BME280;33364;50.766;15.338;2022-09-03T05:58:43;95037.53;;;9.42;82.07
47636;BME280;33364;50.766;15.338;2022-09-03T06:01:14;95038.63;;;9.51;81.51
47636;BME280;33364;50.766;15.338;2022-09-03T06:03:41;95034.41;;;9.61;81.46
47636;BME280;33364;50.766;15.338;2022-09-03T06:06:08;95037.38;;;9.79;82.27
47636;BME280;33364;50.766;15.338;2022-09-03T06:08:35;95043.50;;;9.89;81.91
47636;BME280;33364;50.766;15.338;2022-09-03T06:11:03;95034.09;;;9.99;80.63
47636;BME280;33364;50.766;15.338;2022-09-03T06:13:29;95035.50;;;10.15;81.03
47636;BME280;33364;50.766;15.338;2022-09-03T06:15:56;95028.59;;;10.26;81.65
47636;BME280;33364;50.766;15.338;2022-09-03T06:18:23;95028.78;;;10.23;79.53
47636;BME280;33364;50.766;15.338;2022-09-03T06:21:04;95030.47;;;10.35;79.79
47636;BME280;33364;50.766;15.338;2022-09-03T06:23:32;95030.56;;;10.45;79.58
47636;BME280;33364;50.766;15.338;2022-09-03T06:26:04;95038.66;;;10.52;78.85
47636;BME280;33364;50.766;15.338;2022-09-03T06:28:31;95038.28;;;10.56;79.39
47636;BME280;33364;50.766;15.338;2022-09-03T06:30:59;95035.00;;;10.66;80.88
47636;BME280;33364;50.766;15.338;2022-09-03T06:33:25;95035.09;;;10.75;80.69
47636;BME280;33364;50.766;15.338;2022-09-03T06:35:53;95035.53;;;10.80;80.63
47636;BME280;33364;50.766;15.338;2022-09-03T06:38:22;95045.41;;;10.86;79.72
47636;BME280;33364;50.766;15.338;2022-09-03T06:40:53;95047.25;;;10.96;79.96
47636;BME280;33364;50.766;15.338;2022-09-03T06:43:19;95048.75;;;11.09;81.36
47636;BME280;33364;50.766;15.338;2022-09-03T06:46:12;95055.97;;;11.27;79.49
47636;BME280;33364;50.766;15.338;2022-09-03T06:48:39;95055.00;;;11.49;79.51
47636;BME280;33364;50.766;15.338;2022-09-03T06:51:11;95044.97;;;11.76;76.75
47636;BME280;33364;50.766;15.338;2022-09-03T06:53:39;95053.31;;;12.01;76.61
47636;BME280;33364;50.766;15.338;2022-09-03T06:56:28;95050.69;;;12.22;77.13
47636;BME280;33364;50.766;15.338;2022-09-03T06:58:55;95046.38;;;12.41;76.01
47636;BME280;33364;50.766;15.338;2022-09-03T07:01:23;95051.78;;;12.69;76.25
47636;BME280;33364;50.766;15.338;2022-09-03T07:03:59;95047.75;;;13.05;74.72
47636;BME280;33364;50.766;15.338;2022-09-03T07:06:27;95039.94;;;13.44;69.53
47636;BME280;33364;50.766;15.338;2022-09-03T07:08:54;95046.59;;;13.85;70.06
47636;BME280;33364;50.766;15.338;2022-09-03T07:11:24;95050.84;;;14.23;66.31
47636;BME280;33364;50.766;15.338;2022-09-03T07:13:52;95040.75;;;14.58;63.51
47636;BME280;33364;50.766;15.338;2022-09-03T07:16:47;95037.59;;;14.99;61.17
47636;BME280;33364;50.766;15.338;2022-09-03T07:19:13;95041.19;;;15.34;64.65
47636;BME280;33364;50.766;15.338;2022-09-03T07:21:39;95046.31;;;15.62;60.12
47636;BME280;33364;50.766;15.338;2022-09-03T07:24:10;95037.34;;;15.82;56.89
47636;BME280;33364;50.766;15.338;2022-09-03T07:26:40;95039.94;;;16.08;57.62
47636;BME280;33364;50.766;15.338;2022-09-03T07:29:09;95040.22;;;16.31;57.16
47636;BME280;33364;50.766;15.338;2022-09-03T07:31:38;95030.88;;;16.54;55.90
47636;BME280;33364;50.766;15.338;2022-09-03T07:34:06;95042.59;;;16.50;55.19
47636;BME280;33364;50.766;15.338;2022-09-03T07:36:40;95031.03;;;16.61;55.83
47636;BME280;33364;50.766;15.338;2022-09-03T07:39:08;95038.88;;;16.53;55.82
47636;BME280;33364;50.766;15.338;2022-09-03T07:41:34;95045.53;;;16.47;56.77
47636;BME280;33364;50.766;15.338;2022-09-03T07:44:00;95042.16;;;16.63;59.22
47636;BME280;33364;50.766;15.338;2022-09-03T07:46:34;95039.47;;;16.81;57.49
47636;BME280;33364;50.766;15.338;2022-09-03T07:49:00;95044.13;;;17.12;58.27
47636;BME280;33364;50.766;15.338;2022-09-03T07:51:35;95041.56;;;17.44;53.97
47636;BME280;33364;50.766;15.338;2022-09-03T07:54:05;95045.31;;;17.66;51.81
47636;BME280;33364;50.766;15.338;2022-09-03T07:56:32;95049.41;;;17.69;51.28
47636;BME280;33364;50.766;15.338;2022-09-03T07:59:00;95041.72;;;17.92;51.60
47636;BME280;33364;50.766;15.338;2022-09-03T08:01:28;95042.34;;;18.18;49.37
47636;BME280;33364;50.766;15.338;2022-09-03T08:03:56;95040.66;;;18.33;48.86
47636;BME280;33364;50.766;15.338;2022-09-03T08:06:26;95048.41;;;18.19;48.21
47636;BME280;33364;50.766;15.338;2022-09-03T08:08:57;95052.31;;;18.06;49.10
47636;BME280;33364;50.766;15.338;2022-09-03T08:11:25;95038.28;;;17.91;48.38
47636;BME280;33364;50.766;15.338;2022-09-03T08:14:01;95030.72;;;17.72;47.70
47636;BME280;33364;50.766;15.338;2022-09-03T08:16:29;95045.66;;;17.63;48.85
47636;BME280;33364;50.766;15.338;2022-09-03T08:18:56;95045.63;;;17.47;48.21
47636;BME280;33364;50.766;15.338;2022-09-03T08:21:24;95047.75;;;17.51;48.35
47636;BME280;33364;50.766;15.338;2022-09-03T08:23:53;95042.53;;;17.92;48.63
47636;BME280;33364;50.766;15.338;2022-09-03T08:26:20;95052.00;;;18.18;47.47
47636;BME280;33364;50.766;15.338;2022-09-03T08:28:47;95044.53;;;18.46;45.39
47636;BME280;33364;50.766;15.338;2022-09-03T08:31:20;95043.47;;;18.79;45.12
47636;BME280;33364;50.766;15.338;2022-09-03T08:33:51;95042.53;;;19.03;45.98
47636;BME280;33364;50.766;15.338;2022-09-03T08:38:49;95044.94;;;19.59;43.21
47636;BME280;33364;50.766;15.338;2022-09-03T08:47:12;95032.16;;;19.33;43.18
47636;BME280;33364;50.766;15.338;2022-09-03T08:49:51;95018.91;;;18.72;44.19
47636;BME280;33364;50.766;15.338;2022-09-03T08:52:29;95022.41;;;18.87;46.29
47636;BME280;33364;50.766;15.338;2022-09-03T08:58:22;95024.34;;;19.25;43.74
47636;BME280;33364;50.766;15.338;2022-09-03T09:00:54;95017.22;;;19.79;45.11
47636;BME280;33364;50.766;15.338;2022-09-03T09:06:46;95025.59;;;20.27;43.58
47636;BME280;33364;50.766;15.338;2022-09-03T09:09:43;95026.19;;;19.85;43.39
47636;BME280;33364;50.766;15.338;2022-09-03T09:14:51;95033.22;;;20.37;42.83
47636;BME280;33364;50.766;15.338;2022-09-03T09:17:35;95031.94;;;20.33;40.58
47636;BME280;33364;50.766;15.338;2022-09-03T09:20:15;95029.13;;;20.20;43.08
47636;BME280;33364;50.766;15.338;2022-09-03T09:22:49;95022.38;;;20.55;42.60
47636;BME280;33364;50.766;15.338;2022-09-03T09:25:19;95030.25;;;20.69;40.30
47636;BME280;33364;50.766;15.338;2022-09-03T09:28:07;95019.69;;;20.99;40.36
47636;BME280;33364;50.766;15.338;2022-09-03T09:30:39;95019.47;;;21.01;39.12
47636;BME280;33364;50.766;15.338;2022-09-03T09:33:04;95021.81;;;21.10;39.68
47636;BME280;33364;50.766;15.338;2022-09-03T09:35:31;95026.94;;;21.18;39.74
47636;BME280;33364;50.766;15.338;2022-09-03T09:38:00;95021.53;;;21.63;41.08
47636;BME280;33364;50.766;15.338;2022-09-03T09:40:30;95027.84;;;21.90;38.81
47636;BME280;33364;50.766;15.338;2022-09-03T09:43:18;95034.75;;;21.48;38.06
47636;BME280;33364;50.766;15.338;2022-09-03T09:45:51;95035.16;;;21.45;39.23
47636;BME280;33364;50.766;15.338;2022-09-03T09:50:48;95016.91;;;22.14;40.89
47636;BME280;33364;50.766;15.338;2022-09-03T09:53:17;95014.31;;;22.56;38.30
47636;BME280;33364;50.766;15.338;2022-09-03T09:55:54;95020.84;;;22.66;38.98
47636;BME280;33364;50.766;15.338;2022-09-03T09:58:25;95011.72;;;22.69;36.62
47636;BME280;33364;50.766;15.338;2022-09-03T10:01:22;95008.25;;;22.62;38.19
47636;BME280;33364;50.766;15.338;2022-09-03T10:03:52;95009.72;;;22.78;37.62
47636;BME280;33364;50.766;15.338;2022-09-03T10:06:24;95007.31;;;22.83;37.13
47636;BME280;33364;50.766;15.338;2022-09-03T10:09:11;95022.81;;;22.99;35.53
47636;BME280;33364;50.766;15.338;2022-09-03T10:11:43;95019.00;;;22.26;36.81
47636;BME280;33364;50.766;15.338;2022-09-03T10:14:17;95014.66;;;21.40;38.21
47636;BME280;33364;50.766;15.338;2022-09-03T10:16:52;95022.09;;;20.64;39.47
47636;BME280;33364;50.766;15.338;2022-09-03T10:19:36;95020.00;;;20.45;39.91
47636;BME280;33364;50.766;15.338;2022-09-03T10:22:11;95018.53;;;20.72;39.68
47636;BME280;33364;50.766;15.338;2022-09-03T10:24:59;95018.97;;;20.90;41.01
47636;BME280;33364;50.766;15.338;2022-09-03T10:27:26;95018.91;;;20.69;39.37
47636;BME280;33364;50.766;15.338;2022-09-03T10:29:53;95020.38;;;20.57;41.25
47636;BME280;33364;50.766;15.338;2022-09-03T10:32:44;95028.34;;;20.63;40.29
47636;BME280;33364;50.766;15.338;2022-09-03T10:35:24;95022.78;;;20.73;40.15
47636;BME280;33364;50.766;15.338;2022-09-03T10:38:24;95013.41;;;20.49;41.59
47636;BME280;33364;50.766;15.338;2022-09-03T10:40:57;95012.88;;;19.86;42.39
47636;BME280;33364;50.766;15.338;2022-09-03T10:46:21;95022.34;;;20.69;42.27
47636;BME280;33364;50.766;15.338;2022-09-03T10:49:13;95013.38;;;20.79;40.92
47636;BME280;33364;50.766;15.338;2022-09-03T10:55:03;95010.19;;;20.09;41.35
47636;BME280;33364;50.766;15.338;2022-09-03T10:58:11;95003.19;;;20.02;42.74
47636;BME280;33364;50.766;15.338;2022-09-03T11:00:48;95013.72;;;20.16;42.90
47636;BME280;33364;50.766;15.338;2022-09-03T11:06:11;94997.34;;;21.31;44.13
47636;BME280;33364;50.766;15.338;2022-09-03T11:08:43;95002.78;;;22.01;40.47
47636;BME280;33364;50.766;15.338;2022-09-03T11:11:22;94997.69;;;21.71;38.42
47636;BME280;33364;50.766;15.338;2022-09-03T11:14:09;94997.00;;;21.62;40.02
47636;BME280;33364;50.766;15.338;2022-09-03T11:16:40;95001.50;;;21.04;40.94
47636;BME280;33364;50.766;15.338;2022-09-03T11:19:13;94993.97;;;21.01;40.77
47636;BME280;33364;50.766;15.338;2022-09-03T11:21:42;94998.16;;;21.32;40.74
47636;BME280;33364;50.766;15.338;2022-09-03T11:24:17;94998.13;;;21.10;40.05
47636;BME280;33364;50.766;15.338;2022-09-03T11:26:44;95000.50;;;20.69;41.71
47636;BME280;33364;50.766;15.338;2022-09-03T11:29:49;94998.06;;;20.53;40.90
47636;BME280;33364;50.766;15.338;2022-09-03T11:32:20;94996.59;;;20.35;42.53
47636;BME280;33364;50.766;15.338;2022-09-03T11:34:52;94996.16;;;20.47;43.46
47636;BME280;33364;50.766;15.338;2022-09-03T11:37:24;94998.50;;;20.56;42.17
47636;BME280;33364;50.766;15.338;2022-09-03T11:39:57;94995.06;;;20.56;41.79
47636;BME280;33364;50.766;15.338;2022-09-03T11:42:30;94992.16;;;20.36;41.92
47636;BME280;33364;50.766;15.338;2022-09-03T11:47:53;94984.47;;;20.34;42.60
47636;BME280;33364;50.766;15.338;2022-09-03T11:50:25;94993.06;;;20.43;43.05
47636;BME280;33364;50.766;15.338;2022-09-03T11:53:20;94989.63;;;20.28;42.60
47636;BME280;33364;50.766;15.338;2022-09-03T11:55:55;94997.97;;;20.16;44.33
47636;BME280;33364;50.766;15.338;2022-09-03T12:00:48;94990.53;;;20.05;43.65
47636;BME280;33364;50.766;15.338;2022-09-03T12:03:23;94984.28;;;20.36;43.65
47636;BME280;33364;50.766;15.338;2022-09-03T12:08:46;94994.88;;;20.42;44.23
47636;BME280;33364;50.766;15.338;2022-09-03T12:11:33;94998.50;;;20.56;44.71
47636;BME280;33364;50.766;15.338;2022-09-03T12:19:54;94995.88;;;20.27;44.04
47636;BME280;33364;50.766;15.338;2022-09-03T12:22:22;94998.22;;;20.66;43.89
47636;BME280;33364;50.766;15.338;2022-09-03T12:24:53;94997.94;;;21.12;42.18
47636;BME280;33364;50.766;15.338;2022-09-03T12:27:20;94990.63;;;21.29;40.76
47636;BME280;33364;50.766;15.338;2022-09-03T12:29:56;94991.53;;;21.36;40.84
47636;BME280;33364;50.766;15.338;2022-09-03T12:32:29;94993.94;;;21.16;40.74
47636;BME280;33364;50.766;15.338;2022-09-03T12:35:19;94982.13;;;20.90;41.60
47636;BME280;33364;50.766;15.338;2022-09-03T12:37:46;94991.06;;;20.75;42.99
47636;BME280;33364;50.766;15.338;2022-09-03T12:40:26;94999.78;;;20.60;42.85
47636;BME280;33364;50.766;15.338;2022-09-03T12:42:52;94995.81;;;20.50;42.23
47636;BME280;33364;50.766;15.338;2022-09-03T12:45:21;94983.56;;;20.93;42.95
47636;BME280;33364;50.766;15.338;2022-09-03T12:47:48;94977.91;;;21.54;41.48
47636;BME280;33364;50.766;15.338;2022-09-03T12:50:17;94974.81;;;22.00;41.07
47636;BME280;33364;50.766;15.338;2022-09-03T12:52:51;94972.66;;;22.44;41.51
47636;BME280;33364;50.766;15.338;2022-09-03T12:55:25;94973.34;;;22.66;40.26
47636;BME280;33364;50.766;15.338;2022-09-03T13:00:32;94972.66;;;22.99;40.41
47636;BME280;33364;50.766;15.338;2022-09-03T13:03:06;94973.97;;;22.68;38.17
47636;BME280;33364;50.766;15.338;2022-09-03T13:06:00;94973.97;;;22.68;40.60
47636;BME280;33364;50.766;15.338;2022-09-03T13:08:31;94968.44;;;22.57;38.61
47636;BME280;33364;50.766;15.338;2022-09-03T13:11:00;94968.66;;;22.62;38.22
47636;BME280;33364;50.766;15.338;2022-09-03T13:13:32;94968.31;;;22.71;38.28
47636;BME280;33364;50.766;15.338;2022-09-03T13:18:45;94967.72;;;22.83;37.36
47636;BME280;33364;50.766;15.338;2022-09-03T13:22:04;94982.91;;;21.98;38.82
47636;BME280;33364;50.766;15.338;2022-09-03T13:24:58;94983.00;;;21.34;41.34
47636;BME280;33364;50.766;15.338;2022-09-03T13:32:35;94976.09;;;20.46;43.46
47636;BME280;33364;50.766;15.338;2022-09-03T13:35:15;94971.66;;;20.46;43.21
47636;BME280;33364;50.766;15.338;2022-09-03T13:37:47;94980.41;;;20.47;44.14
47636;BME280;33364;50.766;15.338;2022-09-03T13:40:18;94967.59;;;20.43;42.90
47636;BME280;33364;50.766;15.338;2022-09-03T13:43:02;94974.84;;;20.41;46.04
47636;BME280;33364;50.766;15.338;2022-09-03T13:46:29;94972.22;;;20.41;45.63
47636;BME280;33364;50.766;15.338;2022-09-03T13:51:35;94972.31;;;20.33;44.71
47636;BME280;33364;50.766;15.338;2022-09-03T13:56:49;94970.94;;;20.08;44.46
47636;BME280;33364;50.766;15.338;2022-09-03T14:02:15;94966.53;;;20.08;46.01
47636;BME280;33364;50.766;15.338;2022-09-03T14:05:04;94960.28;;;20.09;46.43
47636;BME280;33364;50.766;15.338;2022-09-03T14:07:47;94957.00;;;20.07;46.30
47636;BME280;33364;50.766;15.338;2022-09-03T14:10:29;94965.97;;;20.13;47.17
47636;BME280;33364;50.766;15.338;2022-09-03T14:13:10;94958.59;;;20.38;44.60
47636;BME280;33364;50.766;15.338;2022-09-03T14:15:48;94959.06;;;20.56;45.72
47636;BME280;33364;50.766;15.338;2022-09-03T14:18:40;94955.91;;;20.61;45.90
47636;BME280;33364;50.766;15.338;2022-09-03T14:24:09;94948.56;;;20.41;45.77
47636;BME280;33364;50.766;15.338;2022-09-03T14:26:49;94958.34;;;20.18;45.61
47636;BME280;33364;50.766;15.338;2022-09-03T14:29:22;94965.88;;;19.91;45.73
47636;BME280;33364;50.766;15.338;2022-09-03T14:35:06;94954.53;;;19.76;47.73
47636;BME280;33364;50.766;15.338;2022-09-03T14:37:56;94949.94;;;20.08;45.81
47636;BME280;33364;50.766;15.338;2022-09-03T14:40:44;94952.13;;;20.34;45.82
47636;BME280;33364;50.766;15.338;2022-09-03T14:49:04;94951.94;;;20.50;45.22
47636;BME280;33364;50.766;15.338;2022-09-03T14:56:52;94947.38;;;20.44;43.44
47636;BME280;33364;50.766;15.338;2022-09-03T15:05:08;94950.38;;;20.41;44.08
47636;BME280;33364;50.766;15.338;2022-09-03T15:12:51;94955.63;;;20.26;45.47
47636;BME280;33364;50.766;15.338;2022-09-03T15:15:29;94963.44;;;20.20;46.26
47636;BME280;33364;50.766;15.338;2022-09-03T15:18:25;94954.47;;;19.99;46.26
47636;BME280;33364;50.766;15.338;2022-09-03T15:20:59;94949.66;;;19.88;46.52
47636;BME280;33364;50.766;15.338;2022-09-03T15:29:24;94950.63;;;19.72;45.86
47636;BME280;33364;50.766;15.338;2022-09-03T15:38:01;94949.47;;;19.75;45.83
47636;BME280;33364;50.766;15.338;2022-09-03T15:40:30;94949.19;;;19.70;46.91
47636;BME280;33364;50.766;15.338;2022-09-03T15:48:21;94943.13;;;19.46;47.51
47636;BME280;33364;50.766;15.338;2022-09-03T15:50:55;94938.81;;;19.53;48.91
47636;BME280;33364;50.766;15.338;2022-09-03T15:59:06;94943.84;;;19.40;47.88
47636;BME280;33364;50.766;15.338;2022-09-03T16:01:45;94931.34;;;19.42;47.99
47636;BME280;33364;50.766;15.338;2022-09-03T16:09:53;94937.19;;;19.14;48.97
47636;BME280;33364;50.766;15.338;2022-09-03T16:12:35;94935.38;;;19.15;48.46
47636;BME280;33364;50.766;15.338;2022-09-03T16:20:26;94951.53;;;19.04;48.77
47636;BME280;33364;50.766;15.338;2022-09-03T16:23:09;94951.47;;;18.89;49.81